»·PEaware :: SWA1187 KLAX-KLAS

SWA1187 :: KLAX-KLAS

FLIGHT INFORMATION

Flight Status: Arrived
Operator:
Southwest Airlines
More flights by this operator :: More flights under this callsign
Pilot: Joe C. (22377)
Aircraft: BOEING 737-800
(B738)
More flights by this aircraft type
Origin: KLAX Los Angeles Intl
United States
Destination: KLAS McCarran Intl
United States
More flights between these airports :: More routes between these airports
Route: +OSHNN8 MISEN KEPEC6
File this flight plan on PilotEdge
Remarks: Sample flight plan
Altitude:
(Current/Filed)
310ft
Speed:
(Current/Filed)
450kts
Departed: 02-Dec-18 04:17 PM
Arrived: 02-Dec-18 04:59 PM
Distance/Time
Traveled:
205nm/0:42
Distance/Time
To Go:
Arrived

Flight Plot

Page will automatically refresh every two minutes.

Flight plan parsing failed; only flown route is shown


Map Options




Map Legend


Flown Route
Filed Route
Departure Airport
Arrival Airport
Navaid (VOR, NDB)
Fix

Horizontal Profiles

Position Reports

Time Latitude Longitude Heading Altitude Ground
Speed
02-Dec-18 15:49 33.939903 -118.403755 310 121ft 0kts
02-Dec-18 15:50 33.939903 -118.403755 310 121ft 0kts
02-Dec-18 15:51 33.939903 -118.403755 310 121ft 0kts
02-Dec-18 15:52 33.939903 -118.403755 310 121ft 0kts
02-Dec-18 15:53 33.939903 -118.403755 310 121ft 0kts
02-Dec-18 15:54 33.939903 -118.403755 310 121ft 0kts
02-Dec-18 15:55 33.939903 -118.403755 310 121ft 0kts
02-Dec-18 15:56 33.939903 -118.403755 310 121ft 0kts
02-Dec-18 15:57 33.939903 -118.403755 310 121ft 0kts
02-Dec-18 15:58 33.939903 -118.403755 310 121ft 0kts
02-Dec-18 15:59 33.939903 -118.403755 310 121ft 0kts
02-Dec-18 16:00 33.939903 -118.403755 310 121ft 0kts
02-Dec-18 16:01 33.939903 -118.403755 310 121ft 0kts
02-Dec-18 16:02 33.939903 -118.403755 310 121ft 0kts
02-Dec-18 16:03 33.939903 -118.403755 310 121ft 0kts
02-Dec-18 16:04 33.939903 -118.403755 310 121ft 0kts
02-Dec-18 16:05 33.939903 -118.403755 310 121ft 0kts
02-Dec-18 16:06 33.939903 -118.403755 310 121ft 0kts
02-Dec-18 16:07 33.939903 -118.403755 310 121ft 0kts
02-Dec-18 16:08 33.939903 -118.403755 310 121ft 0kts
02-Dec-18 16:09 33.939903 -118.403755 310 121ft 0kts
02-Dec-18 16:10 33.939903 -118.403755 310 121ft 0kts
02-Dec-18 16:11 33.939903 -118.403755 310 121ft 0kts
02-Dec-18 16:12 33.939903 -118.403755 310 121ft 0kts
02-Dec-18 16:13 33.939281 -118.403306 29 120ft 3kts
02-Dec-18 16:14 33.938574 -118.402643 116 120ft 5kts
02-Dec-18 16:15 33.938808 -118.399741 84 116ft 18kts
02-Dec-18 16:16 33.939651 -118.391452 82 106ft 22kts
02-Dec-18 16:17 33.940167 -118.386365 83 103ft 11kts
02-Dec-18 16:18 33.940570 -118.382482 82 100ft 14kts
02-Dec-18 16:19 33.940687 -118.380723 109 100ft 0kts
02-Dec-18 16:20 33.939409 -118.384415 262 102ft 88kts
02-Dec-18 16:21 33.933211 -118.441516 255 2347ft 230kts
02-Dec-18 16:22 33.892884 -118.508799 233 4934ft 259kts
02-Dec-18 16:23 33.834691 -118.555429 183 7850ft 289kts
02-Dec-18 16:24 33.752707 -118.535592 171 10815ft 317kts
02-Dec-18 16:25 33.677857 -118.468956 112 13067ft 393kts
02-Dec-18 16:26 33.646945 -118.338211 91 15824ft 431kts
02-Dec-18 16:27 33.662773 -118.187253 58 15998ft 475kts
02-Dec-18 16:28 33.752372 -118.082514 30 15998ft 452kts
02-Dec-18 16:29 33.850821 -117.993719 30 16984ft 452kts
02-Dec-18 16:30 33.950047 -117.903815 29 19006ft 452kts
02-Dec-18 16:31 34.046368 -117.816312 28 21864ft 451kts
02-Dec-18 16:32 34.135662 -117.714389 39 24762ft 465kts
02-Dec-18 16:33 34.221061 -117.599029 38 27771ft 462kts
02-Dec-18 16:34 34.304811 -117.485160 37 30770ft 448kts
02-Dec-18 16:35 34.390373 -117.368618 37 31019ft 472kts
02-Dec-18 16:36 34.476116 -117.251260 38 31075ft 472kts
02-Dec-18 16:37 34.562841 -117.132179 38 31078ft 472kts
02-Dec-18 16:38 34.649119 -117.013312 38 31081ft 473kts
02-Dec-18 16:39 34.734818 -116.894766 38 29290ft 458kts
02-Dec-18 16:40 34.801510 -116.802417 38 28942ft 450kts
02-Dec-18 16:41 34.901643 -116.663056 39 27985ft 470kts
02-Dec-18 16:42 34.988105 -116.546275 35 27043ft 459kts
02-Dec-18 16:43 35.073567 -116.439815 36 25712ft 452kts
02-Dec-18 16:44 35.143014 -116.353048 36 24654ft 452kts
02-Dec-18 16:45 35.241492 -116.229609 38 22718ft 451kts
02-Dec-18 16:46 35.313384 -116.139153 38 21328ft 440kts
02-Dec-18 16:47 35.408650 -116.018991 39 19499ft 425kts
02-Dec-18 16:48 35.475838 -115.933976 40 17848ft 413kts
02-Dec-18 16:49 35.552184 -115.837111 41 15897ft 399kts
02-Dec-18 16:50 35.625541 -115.743665 41 13869ft 342kts
02-Dec-18 16:51 35.693882 -115.656443 42 13011ft 296kts
02-Dec-18 16:52 35.726263 -115.579618 61 12048ft 303kts
02-Dec-18 16:53 35.761134 -115.487656 61 10647ft 292kts
02-Dec-18 16:54 35.795233 -115.398622 61 9241ft 283kts
02-Dec-18 16:55 35.828038 -115.314337 61 7814ft 278kts
02-Dec-18 16:56 35.861298 -115.230453 61 7010ft 267kts
02-Dec-18 16:57 35.916473 -115.191130 12 6995ft 213kts
02-Dec-18 16:58 35.971533 -115.194356 341 6630ft 200kts
02-Dec-18 16:59 36.016930 -115.216453 24 5266ft 160kts
02-Dec-18 17:00 36.050317 -115.184655 23 3042ft 152kts
02-Dec-18 17:01 36.083669 -115.165645 25 2153ft 94kts
02-Dec-18 17:02 36.088651 -115.161536 112 2129ft 7kts
02-Dec-18 17:03 36.088575 -115.161302 112 2129ft 6kts
02-Dec-18 17:04 36.085788 -115.157388 155 2122ft 17kts
02-Dec-18 17:05 36.081897 -115.155103 146 2121ft 13kts
02-Dec-18 17:06 36.081319 -115.151027 69 2109ft 12kts
02-Dec-18 17:07 36.081630 -115.148076 65 2097ft 0kts

Navigation Log

Ident Type
Flight plan parsing failed, navigation log unavailable